FIG weather

Clearfield Lawrence Airport
Clearfield, Pennsylvania, United States

Public forecast

Using degrees Fahrenheit for public forecast. Weather courtesy of forecast.io.

METAR (pilot weather report)

Retrieved 2019/07/22 18:23 UTC (1 hour ago):

KFIG 221823Z AUTO 33010G19KT 1 3/4SM +RA BR FEW016 BKN075 OVC100 19/19 A2984 RMK AO2 WSHFT 1800 P0021 T01940189

TAF (pilot weather forecast)

Closest forecast is DuBois Regional Airport, 23.3 nm (43.2 km) WNW. Retrieved 2019/07/22 18:30 UTC (1 hour ago):

TAF KDUJ 221729Z 2218/2318 36010KT 4SM -RA BR BKN007 FM222000 36008KT P6SM OVC010 FM230000 30004KT P6SM BKN015